Time;durP1;ratioP1;P1;durP2;ratioP2;P2;SDS_P1;SDS_P2;PMS_P1;PMS_P2;Temp;Humidity;BMP_temperature;BMP_pressure;BME280_temperature;BME280_humidity;BME280_pressure;Samples;Min_cycle;Max_cycle;Signal;HPM_P1;HPM_P2
2023/01/28 00:00:14;;;;;;;12.15;8.05;;;;;;;7.15;54.58;102843.63;4990058;28;109093;-74
2023/01/28 00:02:41;;;;;;;12.15;7.70;;;;;;;7.14;54.76;102841.88;4996443;28;122988;-74
2023/01/28 00:05:15;;;;;;;13.57;7.85;;;;;;;7.10;54.62;102845.38;4992366;28;123739;-74
2023/01/28 00:07:43;;;;;;;13.70;8.20;;;;;;;7.07;54.61;102848.00;4999363;28;109433;-74
2023/01/28 00:10:10;;;;;;;14.23;7.82;;;;;;;7.04;54.67;102845.34;4996347;28;109307;-74
2023/01/28 00:12:37;;;;;;;14.60;8.60;;;;;;;7.03;54.42;102838.34;4992452;28;124615;-73
2023/01/28 00:15:05;;;;;;;13.38;8.00;;;;;;;7.05;54.36;102847.13;4995820;28;123728;-74
2023/01/28 00:17:33;;;;;;;13.75;7.93;;;;;;;7.07;54.22;102850.63;4991266;28;110059;-74
2023/01/28 00:20:00;;;;;;;13.93;7.95;;;;;;;7.08;54.70;102848.88;4997174;28;109973;-73
2023/01/28 00:22:27;;;;;;;12.48;7.40;;;;;;;7.08;54.47;102851.50;5001968;28;124992;-73
2023/01/28 00:24:54;;;;;;;12.63;7.65;;;;;;;7.08;54.08;102847.09;4991780;28;124001;-75
2023/01/28 00:27:22;;;;;;;12.95;7.55;;;;;;;7.05;54.27;102852.41;4993683;28;109174;-74
2023/01/28 00:29:50;;;;;;;13.18;8.18;;;;;;;7.02;54.32;102852.38;4998871;28;108630;-74
2023/01/28 00:32:17;;;;;;;11.23;7.20;;;;;;;7.00;54.01;102846.22;4998412;28;124330;-75
2023/01/28 00:34:45;;;;;;;13.82;7.40;;;;;;;6.98;53.94;102848.84;5005115;28;124053;-74
2023/01/28 00:37:12;;;;;;;13.50;8.00;;;;;;;6.98;53.95;102850.63;5000562;28;108638;-74
2023/01/28 00:39:39;;;;;;;12.80;7.43;;;;;;;6.97;53.92;102859.41;4998632;28;109024;-74
2023/01/28 00:42:06;;;;;;;13.55;7.78;;;;;;;6.95;53.70;102861.13;4992929;28;123888;-74
2023/01/28 00:44:33;;;;;;;13.18;8.00;;;;;;;6.93;54.22;102862.88;5001145;28;124001;-74
2023/01/28 00:47:07;;;;;;;13.02;7.65;;;;;;;6.93;53.99;102873.44;4994271;28;108285;-74
2023/01/28 00:49:34;;;;;;;14.05;8.20;;;;;;;6.93;54.09;102868.16;5003090;28;108016;-74
2023/01/28 00:52:21;;;;;;;13.80;8.00;;;;;;;6.91;53.80;102869.91;5004054;28;123364;-74
2023/01/28 00:54:48;;;;;;;15.68;7.82;;;;;;;6.90;54.14;102868.16;4991462;28;123725;-74
2023/01/28 00:57:17;;;;;;;14.05;8.13;;;;;;;6.91;53.64;102880.44;5021083;28;108007;-74
2023/01/28 00:59:45;;;;;;;16.38;8.02;;;;;;;6.88;53.85;102883.09;4991617;28;108987;-75
2023/01/28 01:02:13;;;;;;;15.00;8.20;;;;;;;6.87;53.49;102878.69;5000996;28;123157;-74
2023/01/28 01:04:53;;;;;;;14.80;8.50;;;;;;;6.85;53.68;102875.16;4996139;28;122867;-75
2023/01/28 01:07:31;;;;;;;17.10;9.15;;;;;;;6.82;53.38;102871.66;4974085;28;108653;-74
2023/01/28 01:10:18;;;;;;;21.33;9.18;;;;;;;6.80;53.84;102865.50;4995231;28;110347;-73
2023/01/28 01:12:47;;;;;;;16.75;8.68;;;;;;;6.78;53.45;102864.63;5002389;28;124341;-73
2023/01/28 01:15:17;;;;;;;16.77;8.88;;;;;;;6.75;53.29;102869.88;5000187;28;124031;-74
2023/01/28 01:17:46;;;;;;;15.65;9.07;;;;;;;6.73;53.30;102861.09;5004345;28;108141;-74
2023/01/28 01:20:21;;;;;;;15.02;9.05;;;;;;;6.72;53.37;102867.22;4999576;28;107968;-74
2023/01/28 01:22:50;;;;;;;15.18;8.77;;;;;;;6.71;53.65;102862.84;4992328;28;123126;-74
2023/01/28 01:25:19;;;;;;;15.70;8.75;;;;;;;6.71;53.32;102873.38;4997799;28;123567;-74
2023/01/28 01:27:49;;;;;;;15.35;8.73;;;;;;;6.71;53.30;102862.84;5004813;28;108400;-74
2023/01/28 01:30:20;;;;;;;14.30;8.52;;;;;;;6.71;53.32;102861.97;5004700;28;108649;-74
2023/01/28 01:32:47;;;;;;;15.82;9.02;;;;;;;6.72;53.10;102861.94;4991754;28;123149;-74
2023/01/28 01:35:15;;;;;;;14.90;8.70;;;;;;;6.72;53.11;102863.69;5007957;28;123261;-74
2023/01/28 01:37:43;;;;;;;15.05;8.48;;;;;;;6.71;53.07;102857.56;4986635;28;110204;-74
2023/01/28 01:40:17;;;;;;;14.65;8.40;;;;;;;6.73;53.23;102861.09;4998953;28;108211;-74
2023/01/28 01:42:44;;;;;;;16.55;9.15;;;;;;;6.75;53.42;102864.59;4995583;28;123557;-74
2023/01/28 01:45:13;;;;;;;17.45;9.73;;;;;;;6.76;53.39;102871.63;4998244;28;124413;-74
2023/01/28 01:47:44;;;;;;;15.25;8.93;;;;;;;6.75;53.17;102872.50;5000904;28;109417;-74
2023/01/28 01:50:42;;;;;;;15.70;9.07;;;;;;;6.74;53.10;102868.13;5003540;28;107997;-74
2023/01/28 01:53:21;;;;;;;14.60;8.93;;;;;;;6.73;53.33;102871.63;4997667;28;123239;-74
2023/01/28 01:55:52;;;;;;;15.48;9.02;;;;;;;6.72;53.10;102875.09;5001116;28;123721;-74
2023/01/28 01:58:24;;;;;;;16.45;9.85;;;;;;;6.73;53.25;102876.88;5001350;28;109148;-75
2023/01/28 02:00:51;;;;;;;16.20;9.20;;;;;;;6.74;53.11;102881.28;4995705;28;109586;-75
2023/01/28 02:03:27;;;;;;;15.15;9.65;;;;;;;6.73;53.17;102876.00;5002258;28;123460;-75
2023/01/28 02:05:54;;;;;;;;;;;;;;;6.72;53.19;102875.09;4992432;28;123947;-74
2023/01/28 02:08:21;;;;;;;15.98;9.20;;;;;;;6.72;52.92;102869.84;4998491;28;107880;-75
2023/01/28 02:10:53;;;;;;;16.85;9.73;;;;;;;6.69;53.06;102867.22;5001315;28;108905;-74
2023/01/28 02:13:25;;;;;;;16.88;9.68;;;;;;;6.68;53.12;102870.72;5003215;28;123131;-75
2023/01/28 02:15:54;;;;;;;16.35;9.48;;;;;;;6.68;53.30;102873.34;5008543;28;123730;-75
2023/01/28 02:18:21;;;;;;;17.58;9.90;;;;;;;6.69;53.26;102880.38;4995236;28;108374;-75
2023/01/28 02:21:10;;;;;;;15.13;9.32;;;;;;;6.69;53.16;102880.38;5001050;28;108421;-75
2023/01/28 02:23:56;;;;;;;15.88;9.93;;;;;;;6.66;53.07;102880.34;4983375;28;124895;-73
2023/01/28 02:26:44;;;;;;;15.07;9.07;;;;;;;6.64;53.17;102879.47;5004442;28;123345;-73
2023/01/28 02:29:34;;;;;;;14.55;8.80;;;;;;;6.64;53.12;102871.56;4987866;28;109380;-73
2023/01/28 02:32:39;;;;;;;14.85;8.43;;;;;;;6.64;53.11;102866.31;5011965;28;108310;-74
2023/01/28 02:35:09;;;;;;;15.65;9.40;;;;;;;6.65;53.18;102873.34;4991680;28;123582;-74
2023/01/28 02:37:47;;;;;;;16.17;9.40;;;;;;;6.66;52.94;102872.47;4984403;28;124372;-73
2023/01/28 02:40:21;;;;;;;15.23;9.23;;;;;;;6.67;53.35;102874.22;4985968;28;108127;-74
2023/01/28 02:42:50;;;;;;;15.85;8.82;;;;;;;6.71;53.52;102873.38;4992107;28;108268;-75
2023/01/28 02:45:24;;;;;;;18.58;9.48;;;;;;;6.74;53.28;102868.13;4983778;28;123874;-74
2023/01/28 02:47:59;;;;;;;14.95;8.52;;;;;;;6.75;53.29;102869.88;4996068;28;124161;-75
2023/01/28 02:50:46;;;;;;;13.10;8.50;;;;;;;6.74;52.98;102873.38;4985964;28;113058;-74
2023/01/28 02:56:28;;;;;;;11.98;7.85;;;;;;;6.69;52.91;102877.75;4987526;28;124020;-75
2023/01/28 03:02:23;;;;;;;11.93;7.22;;;;;;;6.65;52.80;102873.34;4996065;28;108768;-75
2023/01/28 03:05:19;;;;;;;12.40;7.43;;;;;;;6.64;53.13;102876.84;4994049;28;108517;-75
2023/01/28 03:07:49;;;;;;;10.90;6.63;;;;;;;6.64;52.71;102871.56;4991415;28;123311;-72
2023/01/28 03:10:21;;;;;;;11.77;7.43;;;;;;;6.66;53.01;102874.22;4997171;28;124019;-73
2023/01/28 03:39:36;;;;;;;14.45;8.57;;;;;;;6.56;53.35;102886.47;4995986;28;109252;-75
2023/01/28 03:42:07;;;;;;;14.35;7.80;;;;;;;6.56;53.36;102889.09;4986205;28;124615;-75
2023/01/28 03:44:52;;;;;;;13.50;8.20;;;;;;;6.57;53.18;102882.94;4993368;28;126252;-76
2023/01/28 03:47:26;;;;;;;11.75;7.45;;;;;;;6.57;53.30;102885.59;4993353;28;109347;-76
2023/01/28 03:50:01;;;;;;;11.98;7.05;;;;;;;6.54;52.88;102880.31;4987289;28;110235;-76
2023/01/28 03:52:34;;;;;;;12.85;7.75;;;;;;;6.53;52.96;102878.53;5002459;28;123804;-76
2023/01/28 03:55:24;;;;;;;11.23;7.18;;;;;;;6.50;53.01;102881.16;4995344;28;123187;-76
2023/01/28 03:57:52;;;;;;;12.35;7.13;;;;;;;6.49;53.16;102876.78;4992393;28;109249;-76
2023/01/28 04:00:22;;;;;;;13.52;7.55;;;;;;;6.49;52.78;102882.03;4990658;28;108171;-76
2023/01/28 04:02:49;;;;;;;12.68;7.28;;;;;;;6.47;52.80;102894.31;4987029;28;123228;-76
2023/01/28 04:05:19;;;;;;;10.52;6.88;;;;;;;6.43;52.57;102894.28;4996612;28;123503;-75
2023/01/28 04:07:55;;;;;;;10.95;6.68;;;;;;;6.41;52.54;102896.03;5018711;28;108481;-75
2023/01/28 04:10:45;;;;;;;11.07;7.13;;;;;;;6.42;52.29;102910.06;5003159;28;109320;-76
2023/01/28 04:13:23;;;;;;;11.18;7.00;;;;;;;6.40;52.21;102909.19;4998511;28;126873;-75
2023/01/28 04:15:51;;;;;;;10.95;6.90;;;;;;;6.38;52.08;102906.53;5003684;28;123415;-76
2023/01/28 04:18:26;;;;;;;10.43;6.63;;;;;;;6.38;51.88;102911.81;5001359;28;110102;-75
2023/01/28 04:20:56;;;;;;;9.07;6.28;;;;;;;6.38;52.29;102916.19;5001802;28;108147;-75
2023/01/28 04:23:28;;;;;;;11.15;6.35;;;;;;;6.38;52.02;102909.16;4985777;28;123134;-74
2023/01/28 04:25:55;;;;;;;12.18;6.97;;;;;;;6.40;52.27;102904.81;4990941;28;124043;-75
2023/01/28 04:28:27;;;;;;;10.02;6.60;;;;;;;6.41;52.31;102901.31;5001803;28;108190;-75
2023/01/28 04:30:54;;;;;;;10.77;6.68;;;;;;;6.43;52.15;102912.72;4990999;28;108667;-75
2023/01/28 04:33:42;;;;;;;10.77;6.45;;;;;;;6.46;51.98;102908.34;4998060;28;124910;-75
2023/01/28 04:36:18;;;;;;;11.32;6.28;;;;;;;6.46;52.06;102903.06;4997412;28;124046;-74
2023/01/28 04:39:08;;;;;;;10.20;6.32;;;;;;;6.46;51.99;102903.06;4999324;28;110548;-75
2023/01/28 04:41:37;;;;;;;9.85;6.35;;;;;;;6.46;52.08;102897.81;5006689;28;110376;-75
2023/01/28 04:44:22;;;;;;;9.27;6.35;;;;;;;6.42;52.14;102892.56;5001014;28;125341;-76
2023/01/28 04:47:03;;;;;;;8.70;5.93;;;;;;;6.41;51.93;102901.31;5001259;28;124452;-75
2023/01/28 04:49:51;;;;;;;8.48;5.68;;;;;;;6.40;51.72;102899.56;5005598;28;109692;-75
2023/01/28 04:52:49;;;;;;;11.05;6.10;;;;;;;6.38;52.02;102911.81;4958876;28;109115;-74
2023/01/28 04:55:38;;;;;;;9.02;5.53;;;;;;;6.36;52.08;102910.91;5004260;28;124104;-75
2023/01/28 04:58:05;;;;;;;9.55;6.18;;;;;;;6.36;52.13;102918.81;4997619;28;123344;-75
2023/01/28 05:00:40;;;;;;;9.98;6.18;;;;;;;6.35;52.00;102911.81;4996519;28;108570;-74
2023/01/28 05:03:08;;;;;;;10.40;6.43;;;;;;;6.35;52.10;102917.06;4988328;28;108091;-75
2023/01/28 05:06:05;;;;;;;9.38;5.95;;;;;;;6.34;52.29;102914.41;4995002;28;123828;-75
2023/01/28 05:08:45;;;;;;;10.70;6.85;;;;;;;6.33;52.27;102912.66;4995984;28;123426;-75
2023/01/28 05:11:14;;;;;;;9.70;6.03;;;;;;;6.33;52.06;102913.56;5006085;28;108410;-75
2023/01/28 05:13:43;;;;;;;9.90;6.45;;;;;;;6.32;52.18;102906.50;4994746;28;107956;-75
2023/01/28 05:16:12;;;;;;;9.77;5.95;;;;;;;6.33;52.41;102913.56;4997577;28;123183;-75
2023/01/28 05:18:40;;;;;;;10.18;5.80;;;;;;;6.33;52.29;102916.19;4984713;28;123056;-75
2023/01/28 05:21:14;;;;;;;9.27;6.13;;;;;;;6.32;52.34;102919.66;5003637;28;108381;-75
2023/01/28 05:23:42;;;;;;;10.35;6.18;;;;;;;6.28;52.10;102915.25;5004426;28;108559;-75
2023/01/28 05:26:09;;;;;;;10.05;5.95;;;;;;;6.24;52.18;102922.25;4987907;28;123233;-75
2023/01/28 05:28:38;;;;;;;9.05;6.07;;;;;;;6.23;52.16;102911.72;4984234;28;124092;-75
2023/01/28 05:31:08;;;;;;;9.32;5.80;;;;;;;6.21;52.56;102911.69;5000957;28;109519;-74
2023/01/28 05:33:36;;;;;;;8.82;6.25;;;;;;;6.21;52.69;102911.69;5001029;28;109095;-74
2023/01/28 05:36:06;;;;;;;8.82;5.60;;;;;;;6.22;52.46;102896.81;5002172;28;124079;-74
2023/01/28 05:38:34;;;;;;;8.88;5.75;;;;;;;6.23;52.60;102901.19;4999190;28;123335;-74
2023/01/28 05:41:01;;;;;;;8.48;5.38;;;;;;;6.22;52.20;102899.44;4995608;28;108396;-73
2023/01/28 05:43:29;;;;;;;9.45;5.57;;;;;;;6.21;52.17;102897.66;4992178;28;108709;-75
2023/01/28 05:46:34;;;;;;;8.43;5.40;;;;;;;6.18;52.02;102905.56;4990847;28;125417;-75
2023/01/28 05:49:22;;;;;;;7.80;5.38;;;;;;;6.17;52.35;102911.69;4987224;28;124407;-74
2023/01/28 05:52:07;;;;;;;9.07;6.00;;;;;;;6.15;51.95;102913.44;4993765;28;109829;-75
2023/01/28 05:54:34;;;;;;;9.68;5.70;;;;;;;6.15;52.35;102913.44;4985607;28;108122;-76
2023/01/28 05:57:02;;;;;;;8.55;5.55;;;;;;;6.14;51.92;102916.91;4995406;28;123182;-75
2023/01/28 05:59:30;;;;;;;10.38;5.45;;;;;;;6.13;52.26;102920.44;5012492;28;122870;-75
2023/01/28 06:02:00;;;;;;;9.35;5.80;;;;;;;6.14;52.04;102916.91;4998779;28;108990;-74
2023/01/28 06:04:27;;;;;;;8.02;5.40;;;;;;;6.14;52.06;102922.16;4998746;28;108301;-74
2023/01/28 06:06:54;;;;;;;9.73;5.78;;;;;;;6.13;52.11;102915.16;4994826;28;123270;-73
2023/01/28 06:09:22;;;;;;;7.88;5.60;;;;;;;6.11;51.90;102919.53;4992377;28;123507;-74
2023/01/28 06:11:50;;;;;;;9.27;5.85;;;;;;;6.10;51.89;102925.66;4991321;28;108502;-73
2023/01/28 06:14:18;;;;;;;9.07;5.95;;;;;;;6.06;51.48;102923.88;5000983;28;108204;-74
2023/01/28 06:17:06;;;;;;;9.30;5.55;;;;;;;6.02;51.64;102929.09;4987358;28;124142;-74
2023/01/28 06:20:02;;;;;;;8.10;5.68;;;;;;;5.99;51.84;102928.19;4994894;28;122970;-73
2023/01/28 06:22:31;;;;;;;8.63;5.80;;;;;;;5.97;51.88;102925.59;4995912;28;109455;-73
2023/01/28 06:25:01;;;;;;;8.13;5.32;;;;;;;5.96;51.55;102923.81;5006950;28;108060;-73
2023/01/28 06:27:28;;;;;;;7.90;5.50;;;;;;;5.95;51.73;102922.06;4996762;28;124195;-73
2023/01/28 06:30:01;;;;;;;9.25;6.03;;;;;;;5.93;51.51;102934.25;4994492;28;123864;-74
2023/01/28 06:32:29;;;;;;;9.68;5.85;;;;;;;5.90;51.28;102923.75;4992126;28;109526;-74
2023/01/28 06:34:56;;;;;;;8.63;5.60;;;;;;;5.86;51.08;102927.22;4991047;28;109556;-75
2023/01/28 06:37:23;;;;;;;8.55;5.57;;;;;;;5.85;51.56;102934.19;4995558;28;124168;-74
2023/01/28 06:39:55;;;;;;;10.07;5.72;;;;;;;5.84;51.35;102934.22;4989590;28;124301;-74
2023/01/28 06:42:23;;;;;;;9.27;6.30;;;;;;;5.82;51.56;102934.19;5001066;28;109152;-74
2023/01/28 06:44:50;;;;;;;8.50;5.68;;;;;;;5.82;51.68;102938.53;4999052;28;108244;-74
2023/01/28 06:47:23;;;;;;;9.18;5.97;;;;;;;5.82;51.21;102930.66;4998889;28;124109;-74
2023/01/28 06:49:51;;;;;;;7.80;4.93;;;;;;;5.80;51.18;102927.13;4986632;28;123687;-75
2023/01/28 06:52:19;;;;;;;9.00;3.75;;;;;;;5.81;51.45;102934.19;5003071;28;110173;-75
2023/01/28 06:54:50;;;;;;;8.60;4.15;;;;;;;5.78;51.44;102944.66;4990666;28;109801;-76
2023/01/28 06:57:17;;;;;;;8.35;4.35;;;;;;;5.77;51.77;102938.53;5008620;28;124775;-76
2023/01/28 06:59:46;;;;;;;7.57;4.03;;;;;;;5.74;51.47;102937.63;4998393;28;123882;-76
2023/01/28 07:02:13;;;;;;;7.85;4.47;;;;;;;5.70;51.54;102941.09;4996741;28;109531;-75
2023/01/28 07:04:40;;;;;;;8.13;4.32;;;;;;;5.65;51.59;102939.31;5006805;28;109045;-75
2023/01/28 07:07:07;;;;;;;8.68;4.25;;;;;;;5.61;51.51;102942.78;4991270;28;124623;-74
2023/01/28 07:09:34;;;;;;;9.10;5.20;;;;;;;5.57;51.46;102946.22;4996012;28;123970;-75
2023/01/28 07:12:04;;;;;;;9.30;5.30;;;;;;;5.54;51.19;102948.84;5001488;28;109849;-75
2023/01/28 07:14:31;;;;;;;10.52;5.32;;;;;;;5.52;51.73;102947.94;5006186;28;109955;-75
2023/01/28 07:16:58;;;;;;;9.75;5.03;;;;;;;5.52;51.79;102955.81;5000467;28;125316;-74
2023/01/28 07:19:27;;;;;;;9.48;5.07;;;;;;;5.52;51.61;102947.94;4994388;28;124623;-74
2023/01/28 07:21:57;;;;;;;10.45;5.32;;;;;;;5.54;51.98;102961.97;5000528;28;109436;-74
2023/01/28 07:24:24;;;;;;;10.05;5.30;;;;;;;5.55;51.81;102958.47;4986723;28;108992;-74
2023/01/28 07:26:51;;;;;;;10.18;5.07;;;;;;;5.56;51.59;102965.50;4999896;28;125019;-73
2023/01/28 07:29:18;;;;;;;9.13;4.95;;;;;;;5.57;51.32;102977.75;4998913;28;123813;-74
2023/01/28 07:31:45;;;;;;;10.32;5.63;;;;;;;5.57;51.73;102983.00;4994280;28;109647;-74
2023/01/28 07:34:13;;;;;;;10.38;5.40;;;;;;;5.57;51.76;102983.00;5002474;28;109288;-74
2023/01/28 07:36:40;;;;;;;11.38;5.93;;;;;;;5.55;51.56;102979.50;4995306;28;124354;-73
2023/01/28 07:39:07;;;;;;;12.07;5.95;;;;;;;5.53;51.41;102991.72;5006600;28;124635;-74
2023/01/28 07:41:34;;;;;;;11.02;5.68;;;;;;;5.55;51.47;102992.63;5005508;28;109270;-74
2023/01/28 07:44:05;;;;;;;10.85;5.28;;;;;;;5.54;51.54;102989.97;4983779;28;108174;-67
2023/01/28 07:46:33;;;;;;;12.77;5.82;;;;;;;5.56;51.63;102986.53;5003361;28;124651;-66
2023/01/28 07:49:00;;;;;;;11.27;5.57;;;;;;;5.57;51.73;102988.28;5000783;28;123835;-67
2023/01/28 07:51:27;;;;;;;12.27;6.13;;;;;;;5.56;51.51;102986.53;5005986;28;109395;-68
2023/01/28 07:53:54;;;;;;;12.13;6.00;;;;;;;5.57;51.71;102988.28;5004900;28;109099;-67
2023/01/28 07:56:22;;;;;;;10.93;5.97;;;;;;;5.58;51.86;102992.69;5006293;28;123860;-68
2023/01/28 07:58:49;;;;;;;10.65;5.40;;;;;;;5.59;52.05;103002.31;5003757;28;124564;-67
2023/01/28 08:01:18;;;;;;;12.15;6.68;;;;;;;5.61;51.65;102995.34;5002224;28;109542;-68
2023/01/28 08:03:45;;;;;;;11.48;5.75;;;;;;;5.60;51.47;102998.81;5011415;28;110275;-67
2023/01/28 08:06:12;;;;;;;13.50;6.57;;;;;;;5.59;51.80;103006.69;5004144;28;124525;-67
2023/01/28 08:08:39;;;;;;;11.73;5.80;;;;;;;5.57;51.74;103004.03;5006719;28;122975;-68
2023/01/28 08:11:10;;;;;;;12.73;5.78;;;;;;;5.55;51.58;102995.25;5009044;28;109072;-68
2023/01/28 08:13:37;;;;;;;11.05;5.65;;;;;;;5.56;51.59;102986.53;5012149;28;108580;-68
2023/01/28 08:16:05;;;;;;;14.25;6.55;;;;;;;5.60;51.53;102996.19;5007048;28;123905;-68
2023/01/28 08:18:32;;;;;;;12.27;6.28;;;;;;;5.62;51.54;103007.59;5009168;28;124742;-68
2023/01/28 08:20:59;;;;;;;12.05;6.63;;;;;;;5.62;51.50;103012.00;5005641;28;109314;-68
2023/01/28 08:23:28;;;;;;;12.85;6.65;;;;;;;5.62;51.32;103017.25;5008889;28;109012;-68
2023/01/28 08:25:57;;;;;;;13.25;6.05;;;;;;;5.62;51.81;103023.38;4988689;28;122992;-68
2023/01/28 08:28:25;;;;;;;13.65;6.65;;;;;;;5.65;51.85;103031.31;5009293;28;123876;-68
2023/01/28 08:30:52;;;;;;;14.65;6.40;;;;;;;5.66;51.81;103030.44;5000580;28;110046;-68
2023/01/28 08:33:20;;;;;;;13.93;6.47;;;;;;;5.66;51.78;103030.44;5011884;28;108737;-68
2023/01/28 08:35:47;;;;;;;12.02;6.20;;;;;;;5.67;51.57;103036.59;5004163;28;124803;-68
2023/01/28 08:38:19;;;;;;;11.77;6.20;;;;;;;5.69;51.93;103033.94;5010315;28;122863;-68
2023/01/28 08:40:49;;;;;;;13.13;6.40;;;;;;;5.71;51.76;103043.63;5009513;28;109095;-68
2023/01/28 08:43:16;;;;;;;11.82;5.93;;;;;;;5.73;51.96;103046.28;5004721;28;108986;-67
2023/01/28 08:45:43;;;;;;;12.93;6.22;;;;;;;5.75;51.53;103039.28;4999234;28;124044;-68
2023/01/28 08:48:15;;;;;;;12.20;6.43;;;;;;;5.76;51.54;103035.78;5001808;28;123923;-68
2023/01/28 08:50:42;;;;;;;14.77;6.40;;;;;;;5.77;52.01;103042.81;5004730;28;109935;-67
2023/01/28 08:53:13;;;;;;;12.40;6.18;;;;;;;5.82;51.71;103046.34;4999125;28;108947;-68
2023/01/28 08:55:40;;;;;;;12.25;6.50;;;;;;;5.82;51.76;103041.09;5006550;28;124337;-68
2023/01/28 08:58:12;;;;;;;14.10;6.38;;;;;;;5.84;51.70;103044.66;5013738;28;124091;-68
2023/01/28 09:00:40;;;;;;;11.85;6.57;;;;;;;5.87;51.94;103049.06;5001033;28;109580;-68
2023/01/28 09:03:08;;;;;;;12.13;6.55;;;;;;;5.88;51.63;103056.97;5007825;28;109308;-68
2023/01/28 09:05:36;;;;;;;11.18;5.80;;;;;;;5.88;51.85;103056.97;5011605;28;124102;-68
2023/01/28 09:08:06;;;;;;;11.15;5.90;;;;;;;5.89;51.55;103063.97;4995768;28;123961;-68
2023/01/28 09:10:36;;;;;;;12.55;6.05;;;;;;;5.90;51.42;103059.63;5001938;28;109547;-68
2023/01/28 09:13:12;;;;;;;13.32;6.55;;;;;;;5.91;51.43;103067.50;4989259;28;108954;-68
2023/01/28 09:15:40;;;;;;;13.82;6.38;;;;;;;5.93;51.16;103078.03;4979616;28;124090;-68
2023/01/28 09:18:10;;;;;;;11.95;6.15;;;;;;;5.90;51.28;103071.00;4993460;28;123233;-67
2023/01/28 09:20:37;;;;;;;11.43;6.15;;;;;;;5.92;51.57;103069.28;4976748;28;109358;-68
2023/01/28 09:23:05;;;;;;;12.38;6.28;;;;;;;5.93;51.62;103075.41;4992982;28;109310;-68
2023/01/28 09:25:34;;;;;;;11.20;6.25;;;;;;;5.91;51.12;103078.00;5006772;28;124375;-68
2023/01/28 09:28:02;;;;;;;14.15;6.28;;;;;;;5.90;51.33;103078.91;4993660;28;123409;-68
2023/01/28 09:30:30;;;;;;;12.10;6.70;;;;;;;5.90;51.72;103071.00;4989194;28;109301;-67
2023/01/28 09:32:57;;;;;;;9.95;6.10;;;;;;;5.90;51.66;103063.13;4996456;28;109193;-68
2023/01/28 09:35:25;;;;;;;10.38;6.00;;;;;;;5.91;51.42;103078.00;4990622;28;124252;-68
2023/01/28 09:37:56;;;;;;;11.95;6.57;;;;;;;5.93;51.24;103076.28;4992927;28;124014;-68
2023/01/28 09:40:34;;;;;;;13.10;6.55;;;;;;;5.94;51.38;103083.31;4988050;28;110917;-69
2023/01/28 09:43:29;;;;;;;10.85;6.03;;;;;;;5.94;51.59;103083.31;4988049;28;110543;-68
2023/01/28 09:46:03;;;;;;;10.00;5.80;;;;;;;5.97;51.59;103083.41;4996652;28;124375;-68
2023/01/28 09:48:54;;;;;;;10.35;5.78;;;;;;;5.98;51.67;103085.13;4988093;28;122733;-68
2023/01/28 09:51:43;;;;;;;11.85;6.63;;;;;;;6.00;51.77;103083.41;4984763;28;108785;-68
2023/01/28 09:54:39;;;;;;;10.45;5.32;;;;;;;6.01;51.69;103095.72;4987792;28;108962;-68
2023/01/28 09:57:16;;;;;;;12.00;6.47;;;;;;;6.01;51.73;103100.97;4992519;28;123978;-68
2023/01/28 09:59:43;;;;;;;11.07;6.78;;;;;;;6.04;51.69;103100.97;4984151;28;124361;-68
2023/01/28 10:02:28;;;;;;;11.52;6.47;;;;;;;6.06;51.85;103092.22;5003139;28;108090;-68
2023/01/28 10:04:58;;;;;;;13.00;6.85;;;;;;;6.04;51.47;103095.72;4977558;28;109345;-68
2023/01/28 10:07:35;;;;;;;13.77;6.50;;;;;;;6.04;51.76;103106.25;5003671;28;124074;-68
2023/01/28 10:10:25;;;;;;;12.20;6.88;;;;;;;6.01;51.36;103108.84;4990474;28;123597;-68
2023/01/28 10:13:25;;;;;;;9.88;6.25;;;;;;;5.96;51.38;103115.81;4990639;28;109274;-68
2023/01/28 10:16:13;;;;;;;9.95;6.30;;;;;;;5.97;51.55;103114.06;4992037;28;108753;-67
2023/01/28 10:18:49;;;;;;;12.38;6.72;;;;;;;5.98;51.55;103108.81;4994053;28;123241;-67
2023/01/28 10:21:37;;;;;;;11.35;6.72;;;;;;;5.98;51.81;103114.06;4992958;28;124735;-67
2023/01/28 10:24:09;;;;;;;9.65;5.72;;;;;;;5.99;51.71;103113.22;4993015;28;109361;-67
2023/01/28 10:26:40;;;;;;;12.88;6.53;;;;;;;5.97;51.66;103120.22;5001402;28;108529;-67
2023/01/28 10:29:23;;;;;;;11.70;6.32;;;;;;;5.96;51.69;103115.81;5001170;28;124786;-68
2023/01/28 10:31:54;;;;;;;8.95;5.45;;;;;;;5.94;51.42;103114.88;5000834;28;124199;-67
2023/01/28 10:34:22;;;;;;;10.52;5.78;;;;;;;5.93;51.55;103117.50;4992705;22;110228;-73
2023/01/28 10:36:50;;;;;;;10.05;5.72;;;;;;;5.93;51.41;103102.59;4991473;28;108987;-72
2023/01/28 10:39:21;;;;;;;11.10;5.90;;;;;;;5.92;51.26;103106.09;4988325;28;124326;-72
2023/01/28 10:41:48;;;;;;;11.35;6.47;;;;;;;5.92;51.27;103106.09;5003994;28;125280;-72
2023/01/28 10:44:36;;;;;;;9.73;5.78;;;;;;;5.91;51.32;103104.31;4972646;28;109030;-72
2023/01/28 10:47:12;;;;;;;10.35;6.32;;;;;;;5.92;51.48;103097.34;4959063;28;109831;-72
2023/01/28 10:49:48;;;;;;;;;;;;;;;5.92;51.49;103106.09;4958897;28;124014;-72
2023/01/28 10:52:15;;;;;;;7.43;5.10;;;;;;;5.91;51.38;103104.31;4972530;28;124199;-72
2023/01/28 10:54:43;;;;;;;8.75;5.43;;;;;;;5.91;51.41;103109.56;4969669;28;108727;-73
2023/01/28 10:57:14;;;;;;;9.18;5.75;;;;;;;5.91;51.45;103099.06;4971297;28;108964;-72
2023/01/28 10:59:41;;;;;;;9.68;5.60;;;;;;;5.91;51.34;103099.06;4972627;28;124081;-72
2023/01/28 11:02:36;;;;;;;10.93;5.68;;;;;;;5.89;51.42;103090.28;4961188;28;124540;-73
2023/01/28 11:05:10;;;;;;;8.95;5.13;;;;;;;5.89;51.39;103095.53;4980443;28;108880;-72
2023/01/28 11:07:38;;;;;;;8.93;5.32;;;;;;;5.89;51.26;103100.78;4968820;28;109114;-72
2023/01/28 11:10:23;;;;;;;11.20;5.82;;;;;;;5.88;51.47;103099.03;4959264;28;122995;-72
2023/01/28 11:12:56;;;;;;;9.63;5.35;;;;;;;5.89;51.19;103082.38;4958309;28;96722;-73
2023/01/28 11:15:24;;;;;;;6.72;4.65;;;;;;;5.91;51.32;103078.00;4956462;28;108521;-73
2023/01/28 11:18:23;;;;;;;8.52;5.15;;;;;;;5.93;51.51;103081.53;4972205;28;108216;-72
2023/01/28 11:20:57;;;;;;;8.48;4.38;;;;;;;5.99;51.23;103064.97;4971812;28;123984;-73
2023/01/28 11:23:38;;;;;;;11.05;5.05;;;;;;;6.02;51.65;103071.16;4971125;28;122872;-73
2023/01/28 11:26:17;;;;;;;8.80;4.82;;;;;;;6.07;51.16;103078.22;4977458;28;110315;-72
2023/01/28 11:28:44;;;;;;;9.32;5.40;;;;;;;6.10;51.30;103058.06;4968631;28;109529;-72
2023/01/28 11:31:15;;;;;;;7.80;5.07;;;;;;;6.15;51.46;103055.50;4966712;28;123991;-73
2023/01/28 11:33:49;;;;;;;8.40;4.88;;;;;;;6.21;51.54;103045.03;4965519;28;123329;-73
2023/01/28 11:36:23;;;;;;;8.15;5.07;;;;;;;6.26;51.26;103043.31;4967911;28;109074;-73
2023/01/28 11:38:54;;;;;;;8.30;5.70;;;;;;;6.33;51.08;103050.41;4960946;28;109470;-72
2023/01/28 11:41:36;;;;;;;10.50;4.85;;;;;;;6.35;50.95;103043.41;4974553;28;124139;-72
2023/01/28 11:44:25;;;;;;;8.88;5.50;;;;;;;6.35;50.73;103048.66;4962971;28;124431;-72
2023/01/28 11:47:06;;;;;;;14.55;5.57;;;;;;;6.36;51.03;103044.25;4966400;28;109096;-73
2023/01/28 11:50:00;;;;;;;8.10;4.90;;;;;;;6.39;51.16;103033.78;4980367;28;108822;-73
2023/01/28 11:52:51;;;;;;;8.07;4.93;;;;;;;6.43;51.29;103025.91;4961470;28;123685;-72
2023/01/28 11:55:43;;;;;;;7.22;4.78;;;;;;;6.53;51.46;103010.19;4981883;28;123332;-72
2023/01/28 11:58:28;;;;;;;9.02;5.38;;;;;;;6.59;51.05;103002.31;4963488;28;109099;-72
2023/01/28 12:01:13;;;;;;;8.27;5.00;;;;;;;6.65;51.46;102986.56;4973592;28;107984;-72
2023/01/28 12:03:50;;;;;;;8.57;4.90;;;;;;;6.71;51.10;102970.81;4958849;28;124082;-72
2023/01/28 12:06:39;;;;;;;10.70;5.43;;;;;;;6.78;51.21;102959.44;4982686;28;123437;-73
2023/01/28 12:09:34;;;;;;;8.30;5.07;;;;;;;6.87;51.18;102962.97;4975217;28;108396;-73
2023/01/28 12:12:17;;;;;;;12.52;6.88;;;;;;;6.92;51.01;102955.97;4974116;28;108751;-72
2023/01/28 12:15:22;;;;;;;11.00;6.22;;;;;;;6.96;51.28;102963.00;4965507;28;123995;-72
2023/01/28 12:17:59;;;;;;;9.98;6.15;;;;;;;7.02;50.94;102952.50;4964721;28;125226;-72
2023/01/28 12:20:56;;;;;;;11.25;6.00;;;;;;;7.11;51.20;102963.06;4964726;28;110260;-72